createdAt,value
2018-09-28T00:01:23.583Z,82.00
2018-09-28T00:03:51.360Z,83.10
2018-09-28T00:06:19.036Z,83.70
2018-09-28T00:08:46.773Z,84.40
2018-09-28T00:11:14.362Z,85.00
2018-09-28T00:13:42.035Z,84.80
2018-09-28T00:16:09.594Z,85.20
2018-09-28T00:18:37.174Z,85.30
2018-09-28T00:21:04.823Z,85.40
2018-09-28T00:23:32.482Z,85.40
2018-09-28T00:26:00.142Z,85.30
2018-09-28T00:28:27.771Z,85.70
2018-09-28T00:30:55.408Z,85.20
2018-09-28T00:33:23.216Z,84.70
2018-09-28T00:35:50.927Z,84.40
2018-09-28T00:38:18.518Z,83.90
2018-09-28T00:40:46.154Z,83.60
2018-09-28T00:43:13.815Z,84.10
2018-09-28T00:45:41.473Z,84.10
2018-09-28T00:48:09.159Z,84.60
2018-09-28T00:50:36.746Z,84.50
2018-09-28T00:53:04.458Z,84.70
2018-09-28T00:55:32.134Z,84.80
2018-09-28T00:57:59.764Z,85.30
2018-09-28T01:00:27.394Z,85.50
2018-09-28T01:02:55.074Z,85.40
2018-09-28T01:05:22.707Z,85.80
2018-09-28T01:07:50.367Z,86.60
2018-09-28T01:10:17.935Z,87.60
2018-09-28T01:12:45.549Z,87.60
2018-09-28T01:15:13.122Z,88.30
2018-09-28T01:17:40.782Z,88.40
2018-09-28T01:20:08.398Z,89.20
2018-09-28T01:22:36.096Z,88.70
2018-09-28T01:25:03.870Z,88.30
2018-09-28T01:27:31.499Z,89.50
2018-09-28T01:29:59.206Z,89.20
2018-09-28T01:32:26.822Z,89.40
2018-09-28T01:34:54.470Z,89.70
2018-09-28T01:37:22.130Z,89.30
2018-09-28T01:39:49.771Z,89.20
2018-09-28T01:42:17.406Z,89.50
2018-09-28T01:44:45.155Z,90.00
2018-09-28T01:47:12.762Z,89.90
2018-09-28T01:49:40.362Z,89.90
2018-09-28T01:52:08.211Z,89.80
2018-09-28T01:54:35.824Z,90.00
2018-09-28T01:57:03.462Z,89.90
2018-09-28T01:59:31.063Z,90.20
2018-09-28T02:01:58.719Z,90.00
2018-09-28T02:04:26.345Z,90.20
2018-09-28T02:06:53.967Z,89.80
2018-09-28T02:09:21.606Z,90.00
2018-09-28T02:11:49.222Z,89.70
2018-09-28T02:14:16.898Z,89.90
2018-09-28T02:16:44.543Z,90.00
2018-09-28T02:19:12.145Z,90.10
2018-09-28T02:21:39.831Z,90.50
2018-09-28T02:24:07.582Z,90.30
2018-09-28T02:26:35.240Z,90.40
2018-09-28T02:29:02.814Z,90.60
2018-09-28T02:31:30.449Z,90.30
2018-09-28T02:33:58.074Z,90.30
2018-09-28T02:36:25.735Z,90.40
2018-09-28T02:38:53.391Z,90.70
2018-09-28T02:41:21.063Z,90.80
2018-09-28T02:43:48.747Z,90.90
2018-09-28T02:46:16.342Z,90.90
2018-09-28T02:48:44.014Z,91.00
2018-09-28T02:51:11.619Z,90.80
2018-09-28T02:53:39.291Z,90.90
2018-09-28T02:56:06.900Z,91.00
2018-09-28T02:58:34.519Z,91.10
2018-09-28T03:01:02.083Z,90.90
2018-09-28T03:03:29.714Z,91.00
2018-09-28T03:05:57.392Z,91.10
2018-09-28T03:08:25.064Z,91.50
2018-09-28T03:10:52.671Z,91.50
2018-09-28T03:13:20.186Z,91.50
2018-09-28T03:15:47.842Z,91.20
2018-09-28T03:18:15.427Z,91.40
2018-09-28T03:20:43.059Z,91.40
2018-09-28T03:23:10.626Z,91.30
2018-09-28T03:25:38.214Z,91.10
2018-09-28T03:28:06.033Z,90.80
2018-09-28T03:30:33.625Z,91.10
2018-09-28T03:33:01.291Z,91.00
2018-09-28T03:35:28.950Z,91.30
2018-09-28T03:37:56.514Z,91.50
2018-09-28T03:40:24.240Z,91.80
2018-09-28T03:42:51.734Z,91.70
2018-09-28T03:45:19.450Z,92.10
2018-09-28T03:47:48.307Z,92.20
2018-09-28T03:50:16.039Z,92.40
2018-09-28T03:52:43.663Z,92.50
2018-09-28T03:55:11.590Z,92.50
2018-09-28T03:57:39.334Z,92.60
2018-09-28T04:00:07.851Z,92.40
2018-09-28T04:02:35.659Z,92.60
2018-09-28T04:05:03.307Z,92.40
2018-09-28T04:07:30.894Z,92.30
2018-09-28T04:09:58.526Z,92.20
2018-09-28T04:12:26.227Z,92.10
2018-09-28T04:14:53.829Z,92.70
2018-09-28T04:17:21.534Z,92.30
2018-09-28T04:19:49.118Z,92.50
2018-09-28T04:22:16.722Z,92.30
2018-09-28T04:24:44.318Z,92.20
2018-09-28T04:27:12.015Z,91.90
2018-09-28T04:29:39.595Z,92.00
2018-09-28T04:32:07.247Z,92.40
2018-09-28T04:34:34.949Z,92.30
2018-09-28T04:37:02.630Z,92.90
2018-09-28T04:39:30.307Z,92.70
2018-09-28T04:41:57.946Z,92.70
2018-09-28T04:44:25.535Z,93.10
2018-09-28T04:46:53.687Z,93.00
2018-09-28T04:49:21.298Z,92.90
2018-09-28T04:51:48.941Z,93.40
2018-09-28T04:54:16.523Z,93.40
2018-09-28T04:56:44.153Z,93.20
2018-09-28T04:59:11.815Z,93.20
2018-09-28T05:01:39.484Z,92.90
2018-09-28T05:04:07.115Z,92.90
2018-09-28T05:06:34.726Z,92.90
2018-09-28T05:09:02.467Z,92.60
2018-09-28T05:11:30.016Z,92.40
2018-09-28T05:13:57.693Z,92.70
2018-09-28T05:16:25.264Z,93.20
2018-09-28T05:18:52.891Z,93.40
2018-09-28T05:21:20.527Z,93.90
2018-09-28T05:23:48.159Z,93.50
2018-09-28T05:26:15.735Z,92.90
2018-09-28T05:28:43.447Z,93.00
2018-09-28T05:31:11.029Z,93.10
2018-09-28T05:33:38.675Z,93.30
2018-09-28T05:36:06.379Z,93.40
2018-09-28T05:38:34.027Z,93.50
2018-09-28T05:41:01.647Z,93.20
2018-09-28T05:43:29.352Z,93.40
2018-09-28T05:45:56.898Z,92.90
2018-09-28T05:48:24.552Z,93.40
2018-09-28T05:50:52.195Z,92.90
2018-09-28T05:53:19.778Z,92.90
2018-09-28T05:55:47.368Z,92.50
2018-09-28T05:58:20.503Z,93.00
2018-09-28T06:00:53.638Z,92.90
2018-09-28T06:03:21.730Z,92.60
2018-09-28T06:05:54.799Z,92.80
2018-09-28T06:08:22.351Z,92.80
2018-09-28T06:10:50.004Z,92.50
2018-09-28T06:13:18.705Z,92.90
2018-09-28T06:15:46.323Z,92.70
2018-09-28T06:18:13.947Z,92.60
2018-09-28T06:20:41.602Z,92.50
2018-09-28T06:23:09.258Z,92.20
2018-09-28T06:25:36.838Z,92.10
2018-09-28T06:28:04.591Z,92.50
2018-09-28T06:30:32.247Z,92.30
2018-09-28T06:32:59.839Z,92.20
2018-09-28T06:35:27.590Z,92.20
2018-09-28T06:37:55.294Z,92.10
2018-09-28T06:40:23.124Z,92.30
2018-09-28T06:42:50.703Z,91.70
2018-09-28T06:45:18.299Z,91.60
2018-09-28T06:47:45.949Z,91.50
2018-09-28T06:50:13.575Z,91.50
2018-09-28T06:52:41.202Z,91.50
2018-09-28T06:55:08.743Z,91.30
2018-09-28T06:57:36.551Z,91.00
2018-09-28T07:00:04.705Z,91.00
2018-09-28T07:02:32.231Z,90.90
2018-09-28T07:04:59.886Z,90.70
2018-09-28T07:07:27.555Z,90.50
2018-09-28T07:09:55.171Z,90.20
2018-09-28T07:12:22.832Z,89.00
2018-09-28T07:14:50.456Z,82.60
2018-09-28T07:17:18.078Z,73.90
2018-09-28T07:19:45.754Z,70.20
2018-09-28T07:22:13.382Z,62.20
2018-09-28T07:24:40.989Z,58.00
2018-09-28T07:27:08.563Z,54.60
2018-09-28T07:29:36.159Z,54.80
2018-09-28T07:32:03.782Z,50.70
2018-09-28T07:34:31.430Z,47.20
2018-09-28T07:36:59.046Z,45.40
2018-09-28T07:39:26.618Z,45.00
2018-09-28T07:41:54.201Z,45.40
2018-09-28T07:44:21.815Z,44.50
2018-09-28T07:46:49.458Z,44.30
2018-09-28T07:49:17.211Z,43.40
2018-09-28T07:51:44.754Z,42.10
2018-09-28T07:54:12.326Z,42.50
2018-09-28T07:56:39.934Z,40.60
2018-09-28T07:59:07.628Z,39.50
2018-09-28T08:01:35.262Z,37.40
2018-09-28T08:04:02.873Z,37.50
2018-09-28T08:06:30.507Z,37.20
2018-09-28T08:08:58.169Z,37.70
2018-09-28T08:11:25.914Z,36.20
2018-09-28T08:13:53.574Z,36.50
2018-09-28T08:16:21.194Z,35.20
2018-09-28T08:18:48.839Z,35.20
2018-09-28T08:21:16.476Z,36.40
2018-09-28T08:23:44.186Z,35.70
2018-09-28T08:26:11.963Z,36.20
2018-09-28T08:28:39.678Z,35.50
2018-09-28T08:31:07.375Z,35.90
2018-09-28T08:33:35.099Z,34.00
2018-09-28T08:36:02.778Z,34.40
2018-09-28T08:38:30.379Z,35.60
2018-09-28T08:40:58.092Z,36.20
2018-09-28T08:43:25.717Z,36.00
2018-09-28T08:45:53.323Z,36.50
2018-09-28T08:48:21.067Z,36.40
2018-09-28T08:50:48.741Z,36.40
2018-09-28T08:53:16.374Z,36.50
2018-09-28T08:55:44.087Z,36.60
2018-09-28T08:58:11.718Z,36.60
2018-09-28T09:00:39.382Z,37.60
2018-09-28T09:03:07.031Z,38.00
2018-09-28T09:05:34.711Z,37.40
2018-09-28T09:08:02.320Z,37.10
2018-09-28T09:10:29.920Z,37.10
2018-09-28T09:12:57.541Z,37.90
2018-09-28T09:15:25.179Z,38.20
2018-09-28T09:17:52.837Z,38.80
2018-09-28T09:20:20.486Z,39.30
2018-09-28T09:22:48.128Z,38.80
2018-09-28T09:25:15.743Z,38.50
2018-09-28T09:27:43.319Z,38.40
2018-09-28T09:30:11.019Z,38.20
2018-09-28T09:32:38.560Z,37.20
2018-09-28T09:35:06.254Z,36.80
2018-09-28T09:37:33.854Z,37.10
2018-09-28T09:40:01.463Z,36.80
2018-09-28T09:42:29.080Z,36.10
2018-09-28T09:44:56.679Z,36.20
2018-09-28T09:47:24.287Z,36.70
2018-09-28T09:49:51.970Z,37.50
2018-09-28T09:52:19.583Z,38.40
2018-09-28T09:54:47.218Z,39.20
2018-09-28T09:57:14.779Z,39.30
2018-09-28T09:59:42.379Z,39.70
2018-09-28T10:02:15.619Z,39.60
2018-09-28T10:04:43.207Z,39.70
2018-09-28T10:07:10.874Z,38.90
2018-09-28T10:09:38.572Z,38.10
2018-09-28T10:12:06.292Z,38.30
2018-09-28T10:14:33.937Z,38.00
2018-09-28T10:17:01.539Z,37.70
2018-09-28T10:19:29.235Z,38.40
2018-09-28T10:21:56.839Z,38.60
2018-09-28T10:24:24.403Z,37.80
2018-09-28T10:26:52.060Z,37.70
2018-09-28T10:29:19.603Z,37.80
2018-09-28T10:31:48.064Z,37.80
2018-09-28T10:34:15.711Z,37.90
2018-09-28T10:36:43.380Z,38.70
2018-09-28T10:39:11.011Z,38.30
2018-09-28T10:41:38.571Z,38.80
2018-09-28T10:44:06.426Z,38.00
2018-09-28T10:46:34.023Z,38.20
2018-09-28T10:49:01.599Z,37.60
2018-09-28T10:51:29.404Z,37.70
2018-09-28T10:53:57.063Z,37.60
2018-09-28T10:56:24.683Z,37.80
2018-09-28T10:58:52.290Z,37.60
2018-09-28T11:01:19.935Z,37.50
2018-09-28T11:03:47.625Z,38.90
2018-09-28T11:06:15.329Z,38.30
2018-09-28T11:08:42.961Z,38.10
2018-09-28T11:11:10.599Z,37.90
2018-09-28T11:13:38.199Z,38.40
2018-09-28T11:16:06.015Z,37.70
2018-09-28T11:18:33.619Z,38.10
2018-09-28T11:21:01.231Z,38.10
2018-09-28T11:23:28.858Z,37.30
2018-09-28T11:25:56.612Z,36.90
2018-09-28T11:28:24.227Z,36.10
2018-09-28T11:30:51.908Z,35.80
2018-09-28T11:33:19.604Z,36.00
2018-09-28T11:35:47.162Z,37.50
2018-09-28T11:38:14.759Z,36.70
2018-09-28T11:40:42.420Z,36.00
2018-09-28T11:43:10.015Z,35.40
2018-09-28T11:45:37.660Z,35.10
2018-09-28T11:48:05.231Z,35.30
2018-09-28T11:50:32.879Z,36.00
2018-09-28T11:53:00.495Z,35.70
2018-09-28T11:55:28.155Z,35.40
2018-09-28T11:57:55.778Z,34.50
2018-09-28T12:00:23.451Z,34.10
2018-09-28T12:02:51.054Z,34.70
2018-09-28T12:05:18.630Z,34.50
2018-09-28T12:07:46.270Z,35.30
2018-09-28T12:10:13.874Z,35.80
2018-09-28T12:12:41.600Z,36.40
2018-09-28T12:15:09.204Z,36.40
2018-09-28T12:17:36.783Z,37.00
2018-09-28T12:20:05.688Z,37.40
2018-09-28T12:22:33.295Z,37.30
2018-09-28T12:25:00.943Z,37.50
2018-09-28T12:27:28.604Z,37.30
2018-09-28T12:29:56.210Z,37.60
2018-09-28T12:32:23.844Z,37.50
2018-09-28T12:34:51.510Z,37.20
2018-09-28T12:37:19.213Z,37.10
2018-09-28T12:39:46.964Z,37.60
2018-09-28T12:42:14.521Z,38.10
2018-09-28T12:44:42.149Z,38.50
2018-09-28T12:47:09.774Z,39.10
2018-09-28T12:49:37.344Z,38.90
2018-09-28T12:52:05.031Z,38.80
2018-09-28T12:54:32.752Z,38.60
2018-09-28T12:57:00.407Z,38.60
2018-09-28T12:59:27.994Z,38.30
2018-09-28T13:01:55.574Z,38.10
2018-09-28T13:04:23.226Z,37.60
2018-09-28T13:06:51.798Z,37.40
2018-09-28T13:09:19.474Z,37.00
2018-09-28T13:11:47.210Z,36.90
2018-09-28T13:14:18.159Z,36.60
2018-09-28T13:16:45.751Z,37.60
2018-09-28T13:19:13.414Z,37.60
2018-09-28T13:21:41.116Z,37.70
2018-09-28T13:24:08.748Z,37.10
2018-09-28T13:26:36.387Z,36.80
2018-09-28T13:29:04.144Z,37.30
2018-09-28T13:31:31.825Z,37.40
2018-09-28T13:33:59.550Z,36.70
2018-09-28T13:36:27.205Z,36.10
2018-09-28T13:38:55.005Z,35.70
2018-09-28T13:41:22.713Z,36.00
2018-09-28T13:43:50.342Z,35.50
2018-09-28T13:46:17.961Z,34.40
2018-09-28T13:48:45.631Z,34.20
2018-09-28T13:51:13.884Z,33.60
2018-09-28T13:53:41.547Z,33.70
2018-09-28T13:56:09.153Z,33.60
2018-09-28T13:58:36.723Z,33.40
2018-09-28T14:01:04.730Z,33.10
2018-09-28T14:03:32.331Z,33.30
2018-09-28T14:05:59.882Z,33.50
2018-09-28T14:08:27.539Z,33.90
2018-09-28T14:10:55.023Z,34.00
2018-09-28T14:13:22.635Z,33.50
2018-09-28T14:15:50.293Z,33.30
2018-09-28T14:18:18.087Z,33.60
2018-09-28T14:20:45.740Z,34.10
2018-09-28T14:23:13.295Z,34.50
2018-09-28T14:25:40.978Z,35.40
2018-09-28T14:28:08.933Z,35.50
2018-09-28T14:30:36.515Z,35.60
2018-09-28T14:33:04.194Z,35.90
2018-09-28T14:35:31.812Z,36.40
2018-09-28T14:37:59.491Z,36.20
2018-09-28T14:40:27.244Z,36.20
2018-09-28T14:42:55.028Z,36.90
2018-09-28T14:45:22.630Z,36.50
2018-09-28T14:47:50.207Z,35.90
2018-09-28T14:50:17.871Z,36.20
2018-09-28T14:52:45.468Z,35.90
2018-09-28T14:55:12.993Z,36.00
2018-09-28T14:57:40.614Z,36.60
2018-09-28T15:00:08.460Z,37.30
2018-09-28T15:02:36.192Z,37.30
2018-09-28T15:05:04.036Z,38.10
2018-09-28T15:07:31.708Z,39.40
2018-09-28T15:09:59.342Z,40.70
2018-09-28T15:12:27.008Z,41.90
2018-09-28T15:14:54.637Z,43.00
2018-09-28T15:17:22.210Z,44.20
2018-09-28T15:19:49.894Z,45.70
2018-09-28T15:22:17.559Z,47.10
2018-09-28T15:24:45.206Z,47.40
2018-09-28T15:27:12.857Z,47.90
2018-09-28T15:29:40.582Z,47.90
2018-09-28T15:32:08.226Z,49.10
2018-09-28T15:34:35.937Z,49.90
2018-09-28T15:37:03.544Z,50.80
2018-09-28T15:39:31.211Z,52.40
2018-09-28T15:41:58.794Z,54.10
2018-09-28T15:44:26.519Z,55.10
2018-09-28T15:46:54.167Z,55.50
2018-09-28T15:49:21.808Z,56.70
2018-09-28T15:51:49.479Z,57.30
2018-09-28T15:54:17.149Z,57.70
2018-09-28T15:56:44.853Z,58.70
2018-09-28T15:59:12.514Z,59.20
2018-09-28T16:01:40.191Z,59.80
2018-09-28T16:04:07.809Z,60.40
2018-09-28T16:06:35.419Z,61.40
2018-09-28T16:09:03.908Z,62.60
2018-09-28T16:11:31.626Z,63.20
2018-09-28T16:13:59.304Z,63.90
2018-09-28T16:16:26.859Z,64.80
2018-09-28T16:18:54.447Z,65.50
2018-09-28T16:21:22.071Z,66.40
2018-09-28T16:23:49.628Z,67.60
2018-09-28T16:26:17.275Z,68.30
2018-09-28T16:28:44.904Z,69.00
2018-09-28T16:31:12.599Z,69.40
2018-09-28T16:33:40.247Z,69.90
2018-09-28T16:36:07.962Z,70.20
2018-09-28T16:38:35.606Z,71.10
2018-09-28T16:41:03.247Z,71.10
2018-09-28T16:43:30.806Z,71.60
2018-09-28T16:45:58.464Z,71.40
2018-09-28T16:48:26.039Z,72.60
2018-09-28T16:50:53.707Z,72.90
2018-09-28T16:53:21.334Z,74.50
2018-09-28T16:55:49.079Z,75.20
2018-09-28T16:58:16.701Z,76.40
2018-09-28T17:00:44.382Z,77.10
2018-09-28T17:03:12.018Z,78.00
2018-09-28T17:05:39.643Z,80.30
2018-09-28T17:08:07.335Z,82.60
2018-09-28T17:10:35.002Z,85.10
2018-09-28T17:13:02.653Z,86.00
2018-09-28T17:15:30.323Z,86.70
2018-09-28T17:17:57.949Z,86.00
2018-09-28T17:20:25.605Z,85.00
2018-09-28T17:22:53.305Z,85.60
2018-09-28T17:25:20.945Z,84.90
2018-09-28T17:27:48.626Z,84.60
2018-09-28T17:30:16.299Z,83.80
2018-09-28T17:32:43.939Z,84.20
2018-09-28T17:35:11.563Z,83.90
2018-09-28T17:37:39.254Z,84.10
2018-09-28T17:40:06.850Z,84.30
2018-09-28T17:42:34.443Z,84.20
2018-09-28T17:45:02.039Z,84.10
2018-09-28T17:47:29.679Z,84.40
2018-09-28T17:49:57.946Z,84.90
2018-09-28T17:52:25.594Z,85.20
2018-09-28T17:54:53.205Z,85.50
2018-09-28T17:57:20.975Z,85.70
2018-09-28T17:59:48.608Z,86.20
2018-09-28T18:02:16.274Z,86.50
2018-09-28T18:04:43.830Z,85.40
2018-09-28T18:07:11.466Z,85.20
2018-09-28T18:09:39.039Z,84.50
2018-09-28T18:12:06.684Z,84.40
2018-09-28T18:14:34.287Z,84.00
2018-09-28T18:17:01.954Z,84.10
2018-09-28T18:19:29.574Z,83.40
2018-09-28T18:21:57.271Z,83.50
2018-09-28T18:24:24.844Z,82.40
2018-09-28T18:26:52.495Z,82.80
2018-09-28T18:29:20.095Z,82.80
2018-09-28T18:31:47.759Z,82.40
2018-09-28T18:34:15.574Z,82.20
2018-09-28T18:36:43.819Z,81.20
2018-09-28T18:39:12.351Z,81.10
2018-09-28T18:41:40.004Z,80.30
2018-09-28T18:44:07.622Z,79.70
2018-09-28T18:46:35.213Z,79.20
2018-09-28T18:49:02.867Z,79.30
2018-09-28T18:51:30.478Z,77.80
2018-09-28T18:53:58.103Z,78.60
2018-09-28T18:56:25.650Z,76.80
2018-09-28T18:58:53.459Z,76.40
2018-09-28T19:01:20.988Z,76.10
2018-09-28T19:03:48.615Z,74.90
2018-09-28T19:06:16.357Z,74.50
2018-09-28T19:08:43.938Z,74.40
2018-09-28T19:11:11.556Z,73.90
2018-09-28T19:13:39.268Z,73.30
2018-09-28T19:16:06.964Z,73.00
2018-09-28T19:18:34.806Z,72.70
2018-09-28T19:21:02.458Z,72.90
2018-09-28T19:23:30.081Z,72.50
2018-09-28T19:25:57.663Z,71.50
2018-09-28T19:28:25.590Z,69.70
2018-09-28T19:30:53.557Z,70.50
2018-09-28T19:33:21.191Z,69.20
2018-09-28T19:35:49.330Z,69.10
2018-09-28T19:38:17.046Z,68.80
2018-09-28T19:40:44.675Z,68.20
2018-09-28T19:43:12.331Z,67.20
2018-09-28T19:45:40.059Z,66.90
2018-09-28T19:48:07.723Z,67.00
2018-09-28T19:50:36.055Z,66.80
2018-09-28T19:53:03.824Z,66.10
2018-09-28T19:55:31.989Z,66.70
2018-09-28T19:57:59.931Z,66.10
2018-09-28T20:00:27.583Z,66.10
2018-09-28T20:02:55.435Z,66.20
2018-09-28T20:05:23.071Z,66.00
2018-09-28T20:07:50.792Z,65.40
2018-09-28T20:10:18.422Z,65.30
2018-09-28T20:12:46.006Z,64.50
2018-09-28T20:15:13.612Z,64.40
2018-09-28T20:17:41.203Z,64.80
2018-09-28T20:20:08.871Z,64.80
2018-09-28T20:22:36.649Z,64.30
2018-09-28T20:25:04.603Z,64.10
2018-09-28T20:27:32.218Z,63.90
2018-09-28T20:29:59.830Z,63.80
2018-09-28T20:32:27.492Z,64.20
2018-09-28T20:34:55.707Z,63.90
2018-09-28T20:37:23.602Z,64.20
2018-09-28T20:39:51.815Z,63.60
2018-09-28T20:42:19.461Z,63.10
2018-09-28T20:44:47.732Z,63.30
2018-09-28T20:47:15.534Z,63.30
2018-09-28T20:49:43.124Z,62.90
2018-09-28T20:52:10.918Z,63.00
2018-09-28T20:54:38.665Z,63.50
2018-09-28T20:57:06.581Z,62.00
2018-09-28T20:59:34.174Z,61.90
2018-09-28T21:02:01.931Z,62.20
2018-09-28T21:04:29.580Z,61.60
2018-09-28T21:06:57.221Z,61.40
2018-09-28T21:09:24.931Z,61.60
2018-09-28T21:11:52.649Z,61.50
2018-09-28T21:14:20.430Z,61.10
2018-09-28T21:16:48.049Z,60.60
2018-09-28T21:19:15.658Z,60.90
2018-09-28T21:21:43.460Z,61.30
2018-09-28T21:24:11.329Z,61.10
2018-09-28T21:26:39.053Z,60.20
2018-09-28T21:29:06.975Z,60.40
2018-09-28T21:31:35.004Z,60.70
2018-09-28T21:34:03.521Z,60.30
2018-09-28T21:36:31.891Z,61.20
2018-09-28T21:38:59.620Z,60.60
2018-09-28T21:41:27.265Z,60.70
2018-09-28T21:43:55.377Z,61.00
2018-09-28T21:46:23.346Z,60.00
2018-09-28T21:48:51.036Z,60.00
2018-09-28T21:51:19.232Z,60.20
2018-09-28T21:53:47.131Z,60.30
2018-09-28T21:56:15.128Z,60.90
2018-09-28T21:58:42.974Z,60.80
2018-09-28T22:01:10.770Z,61.00
2018-09-28T22:03:38.641Z,61.30
2018-09-28T22:06:06.460Z,61.40
2018-09-28T22:08:34.126Z,61.10
2018-09-28T22:11:01.892Z,61.10
2018-09-28T22:13:29.547Z,61.30
2018-09-28T22:15:57.139Z,61.50
2018-09-28T22:18:24.951Z,61.60
2018-09-28T22:20:52.663Z,62.10
2018-09-28T22:23:20.375Z,61.90
2018-09-28T22:25:48.067Z,62.30
2018-09-28T22:28:15.927Z,61.40
2018-09-28T22:30:43.703Z,61.90
2018-09-28T22:33:11.280Z,62.00
2018-09-28T22:35:38.984Z,62.50
2018-09-28T22:38:06.675Z,63.00
2018-09-28T22:40:34.366Z,63.10
2018-09-28T22:43:01.972Z,64.00
2018-09-28T22:45:29.686Z,64.20
2018-09-28T22:47:57.360Z,64.00
2018-09-28T22:50:24.962Z,64.40
2018-09-28T22:52:52.627Z,65.00
2018-09-28T22:55:20.323Z,65.40
2018-09-28T22:57:48.003Z,65.30
2018-09-28T23:00:15.712Z,65.50
2018-09-28T23:02:43.388Z,65.90
2018-09-28T23:05:11.051Z,67.00
2018-09-28T23:07:38.782Z,67.10
2018-09-28T23:10:06.459Z,66.70
2018-09-28T23:12:34.179Z,67.40
2018-09-28T23:15:01.903Z,67.80
2018-09-28T23:17:29.539Z,68.20
2018-09-28T23:19:57.187Z,68.10
2018-09-28T23:22:24.838Z,68.10
2018-09-28T23:24:52.432Z,68.70
2018-09-28T23:27:20.076Z,69.40
2018-09-28T23:29:47.743Z,69.20
2018-09-28T23:32:15.362Z,69.20
2018-09-28T23:34:43.049Z,69.60
2018-09-28T23:37:10.756Z,71.10
2018-09-28T23:39:38.355Z,71.40
2018-09-28T23:42:06.310Z,70.70
2018-09-28T23:44:33.940Z,71.60
2018-09-28T23:47:01.575Z,71.50
2018-09-28T23:49:29.216Z,71.90
2018-09-28T23:51:56.830Z,71.70
2018-09-28T23:54:24.618Z,72.20
2018-09-28T23:56:52.295Z,71.90
2018-09-28T23:59:19.900Z,71.90
